createdAt,value
2018-08-11T00:00:08.883Z,1016.36
2018-08-11T00:00:49.447Z,1016.39
2018-08-11T00:01:30.015Z,1016.39
2018-08-11T00:02:10.575Z,1016.38
2018-08-11T00:02:51.148Z,1016.37
2018-08-11T00:03:31.749Z,1016.36
2018-08-11T00:04:12.306Z,1016.36
2018-08-11T00:04:52.871Z,1016.37
2018-08-11T00:05:33.430Z,1016.34
2018-08-11T00:06:13.977Z,1016.33
2018-08-11T00:06:54.545Z,1016.28
2018-08-11T00:07:35.095Z,1016.33
2018-08-11T00:08:15.650Z,1016.3
2018-08-11T00:08:56.216Z,1016.3
2018-08-11T00:09:36.775Z,1016.34
2018-08-11T00:10:17.342Z,1016.31
2018-08-11T00:10:57.894Z,1016.33
2018-08-11T00:11:38.454Z,1016.34
2018-08-11T00:12:19.017Z,1016.31
2018-08-11T00:12:59.572Z,1016.34
2018-08-11T00:13:40.134Z,1016.29
2018-08-11T00:14:20.695Z,1016.31
2018-08-11T00:15:01.254Z,1016.31
2018-08-11T00:15:41.819Z,1016.34
2018-08-11T00:16:22.378Z,1016.27
2018-08-11T00:17:02.943Z,1016.31
2018-08-11T00:17:43.496Z,1016.29
2018-08-11T00:18:24.069Z,1016.32
2018-08-11T00:19:04.628Z,1016.29
2018-08-11T00:19:45.198Z,1016.26
2018-08-11T00:20:25.770Z,1016.25
2018-08-11T00:21:06.360Z,1016.26
2018-08-11T00:21:46.921Z,1016.27
2018-08-11T00:22:27.480Z,1016.26
2018-08-11T00:23:08.131Z,1016.24
2018-08-11T00:23:48.690Z,1016.22
2018-08-11T00:24:29.266Z,1016.21
2018-08-11T00:25:09.852Z,1016.22
2018-08-11T00:25:50.416Z,1016.19
2018-08-11T00:26:30.964Z,1016.17
2018-08-11T00:27:11.541Z,1016.17
2018-08-11T00:27:52.119Z,1016.21
2018-08-11T00:28:32.681Z,1016.14
2018-08-11T00:29:13.252Z,1016.17
2018-08-11T00:29:53.812Z,1016.18
2018-08-11T00:30:34.376Z,1016.15
2018-08-11T00:31:14.942Z,1016.11
2018-08-11T00:31:55.503Z,1016.17
2018-08-11T00:32:36.052Z,1016.14
2018-08-11T00:33:16.625Z,1016.13
2018-08-11T00:33:57.190Z,1016.14
2018-08-11T00:34:37.752Z,1016.17
2018-08-11T00:35:18.318Z,1016.12
2018-08-11T00:35:58.893Z,1016.08
2018-08-11T00:36:39.463Z,1016.09
2018-08-11T00:37:20.028Z,1016.07
2018-08-11T00:38:00.582Z,1016.09
2018-08-11T00:38:41.151Z,1016.07
2018-08-11T00:39:21.698Z,1016.04
2018-08-11T00:40:02.266Z,1016.06
2018-08-11T00:40:43.009Z,1016.02
2018-08-11T00:41:23.512Z,1016
2018-08-11T00:42:04.070Z,1015.96
2018-08-11T00:42:44.628Z,1015.98
2018-08-11T00:43:25.189Z,1015.94
2018-08-11T00:44:05.756Z,1015.95
2018-08-11T00:44:46.321Z,1015.94
2018-08-11T00:45:26.895Z,1015.93
2018-08-11T00:46:07.465Z,1015.9
2018-08-11T00:46:48.021Z,1015.93
2018-08-11T00:47:28.582Z,1015.92
2018-08-11T00:48:09.135Z,1015.87
2018-08-11T00:48:49.728Z,1015.88
2018-08-11T00:49:30.303Z,1015.91
2018-08-11T00:50:10.853Z,1015.87
2018-08-11T00:50:51.421Z,1015.88
2018-08-11T00:51:31.975Z,1015.92
2018-08-11T00:52:12.580Z,1015.87
2018-08-11T00:52:53.144Z,1015.86
2018-08-11T00:53:33.705Z,1015.89
2018-08-11T00:54:14.274Z,1015.91
2018-08-11T00:54:54.871Z,1015.88
2018-08-11T00:55:35.438Z,1015.89
2018-08-11T00:56:15.990Z,1015.83
2018-08-11T00:56:56.557Z,1015.88
2018-08-11T00:57:37.115Z,1015.85
2018-08-11T00:58:17.679Z,1015.88
2018-08-11T00:58:58.233Z,1015.89
2018-08-11T00:59:38.783Z,1015.88
2018-08-11T01:00:19.345Z,1015.87
2018-08-11T01:00:59.920Z,1015.87
2018-08-11T01:01:40.490Z,1015.81
2018-08-11T01:02:21.147Z,1015.79
2018-08-11T01:03:01.641Z,1015.79
2018-08-11T01:03:42.236Z,1015.72
2018-08-11T01:04:22.796Z,1015.76
2018-08-11T01:05:03.356Z,1015.71
2018-08-11T01:05:43.923Z,1015.69
2018-08-11T01:06:24.480Z,1015.68
2018-08-11T01:07:05.047Z,1015.69
2018-08-11T01:07:45.609Z,1015.66
2018-08-11T01:08:26.166Z,1015.64
2018-08-11T01:09:06.734Z,1015.71
2018-08-11T01:09:47.299Z,1015.66
2018-08-11T01:10:27.856Z,1015.67
2018-08-11T01:11:08.409Z,1015.69
2018-08-11T01:11:48.964Z,1015.68
2018-08-11T01:12:29.530Z,1015.7
2018-08-11T01:13:10.095Z,1015.7
2018-08-11T01:13:50.686Z,1015.67
2018-08-11T01:14:31.239Z,1015.71
2018-08-11T01:15:11.800Z,1015.68
2018-08-11T01:15:52.357Z,1015.68
2018-08-11T01:16:32.931Z,1015.7
2018-08-11T01:17:13.494Z,1015.72
2018-08-11T01:17:54.057Z,1015.69
2018-08-11T01:18:34.623Z,1015.72
2018-08-11T01:19:15.190Z,1015.71
2018-08-11T01:19:55.743Z,1015.69
2018-08-11T01:20:36.306Z,1015.71
2018-08-11T01:21:16.872Z,1015.69
2018-08-11T01:21:57.434Z,1015.73
2018-08-11T01:22:38.005Z,1015.66
2018-08-11T01:23:18.548Z,1015.65
2018-08-11T01:23:59.123Z,1015.64
2018-08-11T01:24:39.681Z,1015.67
2018-08-11T01:25:20.249Z,1015.61
2018-08-11T01:26:00.815Z,1015.61
2018-08-11T01:26:41.395Z,1015.63
2018-08-11T01:27:21.995Z,1015.61
2018-08-11T01:28:02.591Z,1015.64
2018-08-11T01:28:43.159Z,1015.62
2018-08-11T01:29:23.713Z,1015.64
2018-08-11T01:30:04.275Z,1015.63
2018-08-11T01:30:44.856Z,1015.61
2018-08-11T01:31:25.444Z,1015.58
2018-08-11T01:32:06.026Z,1015.61
2018-08-11T01:32:46.595Z,1015.59
2018-08-11T01:33:27.173Z,1015.59
2018-08-11T01:34:07.728Z,1015.58
2018-08-11T01:34:48.280Z,1015.58
2018-08-11T01:35:28.862Z,1015.59
2018-08-11T01:36:09.424Z,1015.56
2018-08-11T01:36:49.990Z,1015.56
2018-08-11T01:37:30.528Z,1015.6
2018-08-11T01:38:11.087Z,1015.56
2018-08-11T01:38:51.669Z,1015.58
2018-08-11T01:39:32.242Z,1015.58
2018-08-11T01:40:12.806Z,1015.6
2018-08-11T01:40:53.367Z,1015.57
2018-08-11T01:41:33.928Z,1015.55
2018-08-11T01:42:14.501Z,1015.53
2018-08-11T01:42:55.057Z,1015.56
2018-08-11T01:43:35.661Z,1015.53
2018-08-11T01:44:16.301Z,1015.55
2018-08-11T01:44:56.815Z,1015.55
2018-08-11T01:45:37.371Z,1015.51
2018-08-11T01:46:17.949Z,1015.53
2018-08-11T01:46:58.504Z,1015.49
2018-08-11T01:47:39.060Z,1015.48
2018-08-11T01:48:19.632Z,1015.5
2018-08-11T01:49:00.200Z,1015.46
2018-08-11T01:49:40.826Z,1015.46
2018-08-11T01:50:21.350Z,1015.46
2018-08-11T01:51:01.916Z,1015.46
2018-08-11T01:51:42.480Z,1015.46
2018-08-11T01:52:23.064Z,1015.46
2018-08-11T01:53:03.638Z,1015.44
2018-08-11T01:53:44.196Z,1015.45
2018-08-11T01:54:24.811Z,1015.47
2018-08-11T01:55:05.388Z,1015.44
2018-08-11T01:55:45.956Z,1015.42
2018-08-11T01:56:26.520Z,1015.44
2018-08-11T01:57:07.082Z,1015.42
2018-08-11T01:57:47.642Z,1015.44
2018-08-11T01:58:28.320Z,1015.4
2018-08-11T01:59:08.887Z,1015.39
2018-08-11T01:59:49.446Z,1015.39
2018-08-11T02:00:30.019Z,1015.42
2018-08-11T02:01:10.581Z,1015.4
2018-08-11T02:01:51.149Z,1015.4
2018-08-11T02:02:31.720Z,1015.36
2018-08-11T02:03:12.340Z,1015.38
2018-08-11T02:03:52.885Z,1015.36
2018-08-11T02:04:33.448Z,1015.39
2018-08-11T02:05:14.039Z,1015.37
2018-08-11T02:05:54.607Z,1015.35
2018-08-11T02:06:35.160Z,1015.35
2018-08-11T02:07:15.728Z,1015.35
2018-08-11T02:07:56.285Z,1015.34
2018-08-11T02:08:36.844Z,1015.31
2018-08-11T02:09:17.397Z,1015.31
2018-08-11T02:09:57.971Z,1015.27
2018-08-11T02:10:38.525Z,1015.27
2018-08-11T02:11:19.200Z,1015.25
2018-08-11T02:11:59.641Z,1015.24
2018-08-11T02:12:40.195Z,1015.22
2018-08-11T02:13:20.754Z,1015.21
2018-08-11T02:14:01.305Z,1015.26
2018-08-11T02:14:41.884Z,1015.23
2018-08-11T02:15:22.429Z,1015.18
2018-08-11T02:16:03.008Z,1015.2
2018-08-11T02:16:43.571Z,1015.21
2018-08-11T02:17:24.155Z,1015.22
2018-08-11T02:18:04.732Z,1015.23
2018-08-11T02:18:45.293Z,1015.15
2018-08-11T02:19:25.848Z,1015.17
2018-08-11T02:20:06.425Z,1015.13
2018-08-11T02:20:46.983Z,1015.1
2018-08-11T02:21:27.588Z,1015.09
2018-08-11T02:22:08.224Z,1015.1
2018-08-11T02:22:48.773Z,1015.05
2018-08-11T02:23:29.347Z,1015.09
2018-08-11T02:24:09.908Z,1015.07
2018-08-11T02:24:50.532Z,1015.1
2018-08-11T02:25:31.032Z,1015.03
2018-08-11T02:26:11.603Z,1015.04
2018-08-11T02:26:52.174Z,1015.05
2018-08-11T02:27:32.732Z,1015.03
2018-08-11T02:28:13.313Z,1015.04
2018-08-11T02:28:53.872Z,1015.04
2018-08-11T02:29:34.448Z,1015.04
2018-08-11T02:30:15.027Z,1015.02
2018-08-11T02:30:55.590Z,1015.03
2018-08-11T02:31:36.149Z,1014.99
2018-08-11T02:32:16.719Z,1015.05
2018-08-11T02:32:57.285Z,1015
2018-08-11T02:33:37.835Z,1015.03
2018-08-11T02:34:18.474Z,1014.99
2018-08-11T02:34:59.011Z,1014.99
2018-08-11T02:35:39.573Z,1015.01
2018-08-11T02:36:20.143Z,1014.99
2018-08-11T02:37:00.689Z,1015
2018-08-11T02:37:41.265Z,1014.99
2018-08-11T02:38:21.849Z,1015
2018-08-11T02:39:02.424Z,1015.03
2018-08-11T02:39:42.983Z,1015.01
2018-08-11T02:40:23.527Z,1014.97
2018-08-11T02:41:04.103Z,1014.96
2018-08-11T02:41:44.674Z,1014.99
2018-08-11T02:42:25.228Z,1014.96
2018-08-11T02:43:05.834Z,1014.98
2018-08-11T02:43:46.393Z,1014.94
2018-08-11T02:44:26.979Z,1014.9
2018-08-11T02:45:07.555Z,1014.92
2018-08-11T02:45:48.116Z,1014.93
2018-08-11T02:46:28.680Z,1014.96
2018-08-11T02:47:09.242Z,1014.88
2018-08-11T02:47:49.797Z,1014.88
2018-08-11T02:48:30.377Z,1014.84
2018-08-11T02:49:10.942Z,1014.88
2018-08-11T02:49:51.506Z,1014.83
2018-08-11T02:50:32.082Z,1014.85
2018-08-11T02:51:12.637Z,1014.82
2018-08-11T02:51:53.193Z,1014.75
2018-08-11T02:52:33.758Z,1014.77
2018-08-11T02:53:14.324Z,1014.76
2018-08-11T02:53:54.884Z,1014.79
2018-08-11T02:54:35.427Z,1014.77
2018-08-11T02:55:15.996Z,1014.74
2018-08-11T02:55:56.557Z,1014.79
2018-08-11T02:56:37.132Z,1014.77
2018-08-11T02:57:17.707Z,1014.76
2018-08-11T02:57:58.265Z,1014.72
2018-08-11T02:58:38.818Z,1014.7
2018-08-11T02:59:19.384Z,1014.73
2018-08-11T02:59:59.943Z,1014.76
2018-08-11T03:00:40.504Z,1014.73
2018-08-11T03:01:21.073Z,1014.71
2018-08-11T03:02:01.642Z,1014.71
2018-08-11T03:02:42.206Z,1014.74
2018-08-11T03:03:22.784Z,1014.71
2018-08-11T03:04:03.360Z,1014.71
2018-08-11T03:04:43.912Z,1014.74
2018-08-11T03:05:24.473Z,1014.72
2018-08-11T03:06:05.039Z,1014.7
2018-08-11T03:06:45.603Z,1014.69
2018-08-11T03:07:26.151Z,1014.7
2018-08-11T03:08:06.730Z,1014.66
2018-08-11T03:08:47.300Z,1014.62
2018-08-11T03:09:27.863Z,1014.63
2018-08-11T03:10:08.416Z,1014.62
2018-08-11T03:10:48.985Z,1014.65
2018-08-11T03:11:29.540Z,1014.61
2018-08-11T03:12:10.093Z,1014.64
2018-08-11T03:12:50.666Z,1014.6
2018-08-11T03:13:31.246Z,1014.64
2018-08-11T03:14:11.925Z,1014.61
2018-08-11T03:14:52.366Z,1014.59
2018-08-11T03:15:32.937Z,1014.61
2018-08-11T03:16:13.501Z,1014.59
2018-08-11T03:16:54.061Z,1014.64
2018-08-11T03:17:34.629Z,1014.61
2018-08-11T03:18:15.219Z,1014.62
2018-08-11T03:18:55.787Z,1014.58
2018-08-11T03:19:36.361Z,1014.59
2018-08-11T03:20:16.914Z,1014.62
2018-08-11T03:20:57.469Z,1014.59
2018-08-11T03:21:38.033Z,1014.61
2018-08-11T03:22:18.595Z,1014.57
2018-08-11T03:22:59.152Z,1014.51
2018-08-11T03:23:39.713Z,1014.53
2018-08-11T03:24:20.288Z,1014.57
2018-08-11T03:25:00.856Z,1014.53
2018-08-11T03:25:41.416Z,1014.56
2018-08-11T03:26:22.032Z,1014.59
2018-08-11T03:27:02.588Z,1014.54
2018-08-11T03:27:43.141Z,1014.56
2018-08-11T03:28:23.700Z,1014.54
2018-08-11T03:29:04.260Z,1014.6
2018-08-11T03:29:44.836Z,1014.55
2018-08-11T03:30:25.405Z,1014.54
2018-08-11T03:31:05.966Z,1014.54
2018-08-11T03:31:46.526Z,1014.58
2018-08-11T03:32:27.083Z,1014.55
2018-08-11T03:33:07.650Z,1014.56
2018-08-11T03:33:48.212Z,1014.55
2018-08-11T03:34:28.782Z,1014.55
2018-08-11T03:35:09.341Z,1014.53
2018-08-11T03:35:49.915Z,1014.51
2018-08-11T03:36:30.481Z,1014.52
2018-08-11T03:37:11.042Z,1014.45
2018-08-11T03:37:51.590Z,1014.54
2018-08-11T03:38:32.145Z,1014.49
2018-08-11T03:39:12.718Z,1014.53
2018-08-11T03:39:53.281Z,1014.53
2018-08-11T03:40:33.891Z,1014.52
2018-08-11T03:41:14.460Z,1014.54
2018-08-11T03:41:55.036Z,1014.53
2018-08-11T03:42:35.597Z,1014.55
2018-08-11T03:43:16.167Z,1014.51
2018-08-11T03:43:56.713Z,1014.53
2018-08-11T03:44:37.272Z,1014.53
2018-08-11T03:45:17.826Z,1014.54
2018-08-11T03:45:58.382Z,1014.52
2018-08-11T03:46:38.927Z,1014.51
2018-08-11T03:47:19.481Z,1014.56
2018-08-11T03:48:00.061Z,1014.55
2018-08-11T03:48:40.610Z,1014.6
2018-08-11T03:49:21.177Z,1014.61
2018-08-11T03:50:01.725Z,1014.62
2018-08-11T03:50:42.294Z,1014.6
2018-08-11T03:51:22.864Z,1014.63
2018-08-11T03:52:03.441Z,1014.57
2018-08-11T03:52:44.005Z,1014.59
2018-08-11T03:53:24.561Z,1014.58
2018-08-11T03:54:05.112Z,1014.56
2018-08-11T03:54:45.680Z,1014.57
2018-08-11T03:55:26.261Z,1014.54
2018-08-11T03:56:06.871Z,1014.58
2018-08-11T03:56:47.421Z,1014.55
2018-08-11T03:57:27.981Z,1014.5
2018-08-11T03:58:08.558Z,1014.5
2018-08-11T03:58:49.105Z,1014.54
2018-08-11T03:59:29.675Z,1014.53
2018-08-11T04:00:10.237Z,1014.52
2018-08-11T04:00:50.809Z,1014.46
2018-08-11T04:01:31.360Z,1014.51
2018-08-11T04:02:11.923Z,1014.45
2018-08-11T04:02:52.476Z,1014.45
2018-08-11T04:03:33.083Z,1014.43
2018-08-11T04:04:13.657Z,1014.47
2018-08-11T04:04:54.209Z,1014.43
2018-08-11T04:05:34.774Z,1014.45
2018-08-11T04:06:15.324Z,1014.44
2018-08-11T04:06:55.932Z,1014.43
2018-08-11T04:07:36.491Z,1014.41
2018-08-11T04:08:17.047Z,1014.45
2018-08-11T04:08:57.600Z,1014.43
2018-08-11T04:09:38.177Z,1014.39
2018-08-11T04:10:18.739Z,1014.38
2018-08-11T04:10:59.306Z,1014.41
2018-08-11T04:11:39.876Z,1014.35
2018-08-11T04:12:20.432Z,1014.37
2018-08-11T04:13:01.001Z,1014.38
2018-08-11T04:13:41.555Z,1014.37
2018-08-11T04:14:22.129Z,1014.35
2018-08-11T04:15:02.693Z,1014.31
2018-08-11T04:15:43.247Z,1014.37
2018-08-11T04:16:23.819Z,1014.35
2018-08-11T04:17:04.378Z,1014.37
2018-08-11T04:17:44.944Z,1014.38
2018-08-11T04:18:25.509Z,1014.39
2018-08-11T04:19:06.071Z,1014.36
2018-08-11T04:19:46.631Z,1014.35
2018-08-11T04:20:27.199Z,1014.36
2018-08-11T04:21:07.772Z,1014.37
2018-08-11T04:21:48.313Z,1014.34
2018-08-11T04:22:28.882Z,1014.33
2018-08-11T04:23:09.440Z,1014.35
2018-08-11T04:23:50.000Z,1014.33
2018-08-11T04:24:30.560Z,1014.34
2018-08-11T04:25:11.130Z,1014.34
2018-08-11T04:25:51.692Z,1014.34
2018-08-11T04:26:32.260Z,1014.34
2018-08-11T04:27:12.824Z,1014.32
2018-08-11T04:27:53.386Z,1014.31
2018-08-11T04:28:33.955Z,1014.31
2018-08-11T04:29:14.503Z,1014.32
2018-08-11T04:29:55.097Z,1014.31
2018-08-11T04:30:35.663Z,1014.31
2018-08-11T04:31:16.220Z,1014.29
2018-08-11T04:31:56.771Z,1014.32
2018-08-11T04:32:37.339Z,1014.28
2018-08-11T04:33:17.909Z,1014.29
2018-08-11T04:33:58.461Z,1014.28
2018-08-11T04:34:39.018Z,1014.26
2018-08-11T04:35:19.583Z,1014.27
2018-08-11T04:36:00.142Z,1014.27
2018-08-11T04:36:40.802Z,1014.26
2018-08-11T04:37:21.360Z,1014.25
2018-08-11T04:38:01.919Z,1014.22
2018-08-11T04:38:42.509Z,1014.24
2018-08-11T04:39:23.055Z,1014.25
2018-08-11T04:40:03.620Z,1014.26
2018-08-11T04:40:44.177Z,1014.25
2018-08-11T04:41:24.742Z,1014.21
2018-08-11T04:42:05.330Z,1014.25
2018-08-11T04:42:45.862Z,1014.24
2018-08-11T04:43:26.416Z,1014.23
2018-08-11T04:44:06.980Z,1014.23
2018-08-11T04:44:47.532Z,1014.22
2018-08-11T04:45:28.107Z,1014.23
2018-08-11T04:46:08.707Z,1014.21
2018-08-11T04:46:49.273Z,1014.18
2018-08-11T04:47:29.852Z,1014.25
2018-08-11T04:48:10.412Z,1014.19
2018-08-11T04:48:50.991Z,1014.2
2018-08-11T04:49:31.560Z,1014.22
2018-08-11T04:50:12.117Z,1014.24
2018-08-11T04:50:52.673Z,1014.23
2018-08-11T04:51:33.228Z,1014.22
2018-08-11T04:52:13.789Z,1014.16
2018-08-11T04:52:54.367Z,1014.19
2018-08-11T04:53:34.928Z,1014.21
2018-08-11T04:54:15.482Z,1014.2
2018-08-11T04:54:56.034Z,1014.2
2018-08-11T04:55:36.637Z,1014.26
2018-08-11T04:56:17.231Z,1014.19
2018-08-11T04:56:57.800Z,1014.21
2018-08-11T04:57:38.376Z,1014.18
2018-08-11T04:58:18.937Z,1014.25
2018-08-11T04:58:59.538Z,1014.15
2018-08-11T04:59:40.091Z,1014.17
2018-08-11T05:00:20.670Z,1014.17
2018-08-11T05:01:01.255Z,1014.18
2018-08-11T05:01:41.841Z,1014.17
2018-08-11T05:02:22.411Z,1014.2
2018-08-11T05:03:02.982Z,1014.2
2018-08-11T05:03:43.534Z,1014.16
2018-08-11T05:04:24.104Z,1014.18
2018-08-11T05:05:04.660Z,1014.16
2018-08-11T05:05:45.222Z,1014.18
2018-08-11T05:06:25.789Z,1014.19
2018-08-11T05:07:06.355Z,1014.16
2018-08-11T05:07:46.923Z,1014.11
2018-08-11T05:08:27.489Z,1014.15
2018-08-11T05:09:08.063Z,1014.14
2018-08-11T05:09:48.679Z,1014.18
2018-08-11T05:10:29.200Z,1014.2
2018-08-11T05:11:09.762Z,1014.19
2018-08-11T05:11:50.322Z,1014.15
2018-08-11T05:12:30.882Z,1014.18
2018-08-11T05:13:11.442Z,1014.15
2018-08-11T05:13:52.000Z,1014.21
2018-08-11T05:14:32.565Z,1014.2
2018-08-11T05:15:13.132Z,1014.21
2018-08-11T05:15:53.695Z,1014.22
2018-08-11T05:16:34.257Z,1014.21
2018-08-11T05:17:14.832Z,1014.19
2018-08-11T05:17:55.387Z,1014.21
2018-08-11T05:18:35.953Z,1014.24
2018-08-11T05:19:16.508Z,1014.21
2018-08-11T05:19:57.147Z,1014.27
2018-08-11T05:20:37.664Z,1014.24
2018-08-11T05:21:18.244Z,1014.27
2018-08-11T05:21:58.811Z,1014.25
2018-08-11T05:22:39.375Z,1014.19
2018-08-11T05:23:19.945Z,1014.23
2018-08-11T05:24:00.512Z,1014.21
2018-08-11T05:24:41.078Z,1014.22
2018-08-11T05:25:21.655Z,1014.22
2018-08-11T05:26:02.214Z,1014.19
2018-08-11T05:26:42.821Z,1014.23
2018-08-11T05:27:23.385Z,1014.22
2018-08-11T05:28:03.947Z,1014.23
2018-08-11T05:28:44.509Z,1014.25
2018-08-11T05:29:25.073Z,1014.28
2018-08-11T05:30:05.635Z,1014.25
2018-08-11T05:30:46.204Z,1014.25
2018-08-11T05:31:26.775Z,1014.24
2018-08-11T05:32:07.349Z,1014.3
2018-08-11T05:32:47.910Z,1014.29
2018-08-11T05:33:28.492Z,1014.33
2018-08-11T05:34:09.068Z,1014.26
2018-08-11T05:34:49.633Z,1014.31
2018-08-11T05:35:30.190Z,1014.33
2018-08-11T05:36:10.767Z,1014.33
2018-08-11T05:36:51.346Z,1014.34
2018-08-11T05:37:31.896Z,1014.32
2018-08-11T05:38:12.474Z,1014.3
2018-08-11T05:38:53.031Z,1014.33
2018-08-11T05:39:33.593Z,1014.31
2018-08-11T05:40:14.169Z,1014.31
2018-08-11T05:40:54.734Z,1014.29
2018-08-11T05:41:35.302Z,1014.3
2018-08-11T05:42:15.849Z,1014.31
2018-08-11T05:42:56.429Z,1014.31
2018-08-11T05:43:36.991Z,1014.31
2018-08-11T05:44:17.548Z,1014.26
2018-08-11T05:44:58.117Z,1014.34
2018-08-11T05:45:38.692Z,1014.32
2018-08-11T05:46:19.250Z,1014.34
2018-08-11T05:46:59.817Z,1014.36
2018-08-11T05:47:40.380Z,1014.31
2018-08-11T05:48:20.943Z,1014.32
2018-08-11T05:49:01.509Z,1014.32
2018-08-11T05:49:42.076Z,1014.35
2018-08-11T05:50:22.658Z,1014.33
2018-08-11T05:51:03.215Z,1014.35
2018-08-11T05:51:43.769Z,1014.36
2018-08-11T05:52:24.370Z,1014.37
2018-08-11T05:53:04.938Z,1014.36
2018-08-11T05:53:45.506Z,1014.36
2018-08-11T05:54:26.095Z,1014.36
2018-08-11T05:55:06.659Z,1014.37
2018-08-11T05:55:47.224Z,1014.31
2018-08-11T05:56:27.786Z,1014.35
2018-08-11T05:57:08.364Z,1014.35
2018-08-11T05:57:48.934Z,1014.37
2018-08-11T05:58:29.503Z,1014.33
2018-08-11T05:59:10.064Z,1014.33
2018-08-11T05:59:50.643Z,1014.37
2018-08-11T06:00:31.218Z,1014.35
2018-08-11T06:01:11.766Z,1014.37
2018-08-11T06:01:52.327Z,1014.38
2018-08-11T06:02:32.887Z,1014.37
2018-08-11T06:03:13.448Z,1014.37
2018-08-11T06:03:54.056Z,1014.38
2018-08-11T06:04:34.574Z,1014.38
2018-08-11T06:05:15.139Z,1014.37
2018-08-11T06:05:55.707Z,1014.33
2018-08-11T06:06:36.280Z,1014.34
2018-08-11T06:07:16.831Z,1014.35
2018-08-11T06:07:57.408Z,1014.33
2018-08-11T06:08:37.967Z,1014.31
2018-08-11T06:09:18.536Z,1014.29
2018-08-11T06:09:59.107Z,1014.31
2018-08-11T06:10:39.687Z,1014.26
2018-08-11T06:11:20.267Z,1014.27
2018-08-11T06:12:00.835Z,1014.26
2018-08-11T06:12:41.442Z,1014.24
2018-08-11T06:13:21.998Z,1014.28
2018-08-11T06:14:02.604Z,1014.29
2018-08-11T06:14:43.191Z,1014.28
2018-08-11T06:15:23.750Z,1014.24
2018-08-11T06:16:04.308Z,1014.25
2018-08-11T06:16:44.867Z,1014.22
2018-08-11T06:17:25.440Z,1014.26
2018-08-11T06:18:06.979Z,1014.27
2018-08-11T06:18:47.438Z,1014.26
2018-08-11T06:19:28.014Z,1014.3
2018-08-11T06:20:08.608Z,1014.27
2018-08-11T06:20:49.276Z,1014.29
2018-08-11T06:21:29.869Z,1014.31
2018-08-11T06:22:10.431Z,1014.3
2018-08-11T06:22:50.998Z,1014.31
2018-08-11T06:23:31.560Z,1014.3
2018-08-11T06:24:12.142Z,1014.25
2018-08-11T06:24:52.694Z,1014.3
2018-08-11T06:25:33.270Z,1014.27
2018-08-11T06:26:13.818Z,1014.29
2018-08-11T06:26:54.411Z,1014.26
2018-08-11T06:27:34.999Z,1014.28
2018-08-11T06:28:15.580Z,1014.25
2018-08-11T06:28:56.142Z,1014.25
2018-08-11T06:29:36.732Z,1014.26
2018-08-11T06:30:17.296Z,1014.25
2018-08-11T06:30:57.887Z,1014.24
2018-08-11T06:31:38.582Z,1014.27
2018-08-11T06:32:19.377Z,1014.27
2018-08-11T06:32:59.925Z,1014.28
2018-08-11T06:33:40.491Z,1014.27
2018-08-11T06:34:21.063Z,1014.27
2018-08-11T06:35:01.635Z,1014.35
2018-08-11T06:35:42.273Z,1014.37
2018-08-11T06:36:22.812Z,1014.32
2018-08-11T06:37:03.380Z,1014.38
2018-08-11T06:37:43.969Z,1014.39
2018-08-11T06:38:24.604Z,1014.37
2018-08-11T06:39:05.182Z,1014.36
2018-08-11T06:39:45.748Z,1014.33
2018-08-11T06:40:26.348Z,1014.29
2018-08-11T06:41:06.876Z,1014.27
2018-08-11T06:41:47.443Z,1014.35
2018-08-11T06:42:28.157Z,1014.36
2018-08-11T06:43:08.881Z,1014.37
2018-08-11T06:43:49.443Z,1014.31
2018-08-11T06:44:30.008Z,1014.37
2018-08-11T06:45:10.585Z,1014.42
2018-08-11T06:45:51.154Z,1014.47
2018-08-11T06:46:31.745Z,1014.43
2018-08-11T06:47:12.289Z,1014.46
2018-08-11T06:47:52.976Z,1014.46
2018-08-11T06:48:33.666Z,1014.41
2018-08-11T06:49:14.450Z,1014.38
2018-08-11T06:49:54.998Z,1014.5
2018-08-11T06:50:35.548Z,1014.5
2018-08-11T06:51:16.115Z,1014.48
2018-08-11T06:51:56.682Z,1014.42
2018-08-11T06:52:37.273Z,1014.46
2018-08-11T06:53:17.845Z,1014.44
2018-08-11T06:53:58.442Z,1014.42
2018-08-11T06:54:39.019Z,1014.48
2018-08-11T06:55:19.590Z,1014.46
2018-08-11T06:56:00.166Z,1014.44
2018-08-11T06:56:40.749Z,1014.48
2018-08-11T06:57:21.318Z,1014.46
2018-08-11T06:58:01.890Z,1014.48
2018-08-11T06:58:42.619Z,1014.54
2018-08-11T06:59:23.197Z,1014.53
2018-08-11T07:00:03.762Z,1014.52
2018-08-11T07:00:44.333Z,1014.45
2018-08-11T07:01:24.903Z,1014.45
2018-08-11T07:02:05.491Z,1014.49
2018-08-11T07:02:46.048Z,1014.46
2018-08-11T07:03:26.637Z,1014.47
2018-08-11T07:04:07.274Z,1014.5
2018-08-11T07:04:47.770Z,1014.5
2018-08-11T07:05:28.330Z,1014.48
2018-08-11T07:06:08.905Z,1014.48
2018-08-11T07:06:49.491Z,1014.43
2018-08-11T07:07:30.048Z,1014.52
2018-08-11T07:08:10.617Z,1014.48
2018-08-11T07:08:51.208Z,1014.43
2018-08-11T07:09:31.769Z,1014.47
2018-08-11T07:10:12.335Z,1014.45
2018-08-11T07:10:52.897Z,1014.45
2018-08-11T07:11:33.460Z,1014.46
2018-08-11T07:12:14.032Z,1014.49
2018-08-11T07:12:54.625Z,1014.5
2018-08-11T07:13:35.189Z,1014.54
2018-08-11T07:14:15.811Z,1014.52
2018-08-11T07:14:56.377Z,1014.5
2018-08-11T07:15:36.967Z,1014.5
2018-08-11T07:16:17.537Z,1014.51
2018-08-11T07:16:58.098Z,1014.49
2018-08-11T07:17:38.666Z,1014.56
2018-08-11T07:18:19.251Z,1014.55
2018-08-11T07:18:59.836Z,1014.54
2018-08-11T07:19:40.412Z,1014.6
2018-08-11T07:20:20.976Z,1014.53
2018-08-11T07:21:01.539Z,1014.67
2018-08-11T07:21:42.121Z,1014.71
2018-08-11T07:22:22.687Z,1014.56
2018-08-11T07:23:03.263Z,1014.68
2018-08-11T07:23:44.031Z,1014.54
2018-08-11T07:24:24.611Z,1014.69
2018-08-11T07:25:05.176Z,1014.54
2018-08-11T07:25:45.731Z,1014.62
2018-08-11T07:26:26.361Z,1014.49
2018-08-11T07:27:06.906Z,1014.48
2018-08-11T07:27:47.470Z,1014.47
2018-08-11T07:28:28.039Z,1014.44
2018-08-11T07:29:08.581Z,1014.48
2018-08-11T07:29:49.167Z,1014.44
2018-08-11T07:30:29.756Z,1014.44
2018-08-11T07:31:10.324Z,1014.47
2018-08-11T07:31:50.889Z,1014.46
2018-08-11T07:32:31.481Z,1014.45
2018-08-11T07:33:12.052Z,1014.48
2018-08-11T07:33:52.628Z,1014.47
2018-08-11T07:34:33.206Z,1014.45
2018-08-11T07:35:13.771Z,1014.46
2018-08-11T07:35:54.342Z,1014.47
2018-08-11T07:36:35.000Z,1014.41
2018-08-11T07:37:15.476Z,1014.43
2018-08-11T07:37:56.047Z,1014.45
2018-08-11T07:38:36.662Z,1014.43
2018-08-11T07:39:17.219Z,1014.42
2018-08-11T07:39:57.827Z,1014.43
2018-08-11T07:40:38.410Z,1014.44
2018-08-11T07:41:18.963Z,1014.44
2018-08-11T07:41:59.541Z,1014.43
2018-08-11T07:42:40.100Z,1014.43
2018-08-11T07:43:20.749Z,1014.39
2018-08-11T07:44:01.254Z,1014.39
2018-08-11T07:44:41.810Z,1014.35
2018-08-11T07:45:22.373Z,1014.43
2018-08-11T07:46:02.941Z,1014.4
2018-08-11T07:46:43.508Z,1014.39
2018-08-11T07:47:24.093Z,1014.41
2018-08-11T07:48:04.633Z,1014.48
2018-08-11T07:48:45.195Z,1014.41
2018-08-11T07:49:25.753Z,1014.39
2018-08-11T07:50:06.318Z,1014.39
2018-08-11T07:50:46.886Z,1014.42
2018-08-11T07:51:27.442Z,1014.43
2018-08-11T07:52:08.007Z,1014.49
2018-08-11T07:52:48.557Z,1014.51
2018-08-11T07:53:29.123Z,1014.51
2018-08-11T07:54:09.692Z,1014.51
2018-08-11T07:54:50.262Z,1014.49
2018-08-11T07:55:30.829Z,1014.5
2018-08-11T07:56:11.385Z,1014.51
2018-08-11T07:56:51.954Z,1014.51
2018-08-11T07:57:32.541Z,1014.49
2018-08-11T07:58:13.134Z,1014.5
2018-08-11T07:58:53.721Z,1014.49
2018-08-11T07:59:34.296Z,1014.48
2018-08-11T08:00:14.860Z,1014.5
2018-08-11T08:00:55.469Z,1014.5
2018-08-11T08:01:36.040Z,1014.51
2018-08-11T08:02:16.603Z,1014.49
2018-08-11T08:02:57.174Z,1014.5
2018-08-11T08:03:37.737Z,1014.52
2018-08-11T08:04:18.312Z,1014.49
2018-08-11T08:04:58.869Z,1014.54
2018-08-11T08:05:39.449Z,1014.53
2018-08-11T08:06:20.049Z,1014.61
2018-08-11T08:07:00.604Z,1014.58
2018-08-11T08:07:41.168Z,1014.48
2018-08-11T08:08:21.736Z,1014.52
2018-08-11T08:09:02.324Z,1014.56
2018-08-11T08:09:42.889Z,1014.54
2018-08-11T08:10:23.472Z,1014.64
2018-08-11T08:11:04.050Z,1014.62
2018-08-11T08:11:44.630Z,1014.61